Middleburg, North Carolina
Current Conditions -  °F | °C
As of 3:35 AM on Friday 19 Dec 2014 (Local Time) from KHNZ Reporting Station
Overcast Overcast  
Wind Chill: 37°   Ceiling: 7000
Heat Index: 37°   Visibility: 10mi
Dew Point: 28°   Wind: 3mph
Humidity: 70%   Direction: 300°WNW
Pressure: 30.09"   Gusts: NA
Location:  36.4°N, 78.32°W
Report Text: KHNZ 190835Z AUTO 30003KT 10SM OVC070 03/M02 A3009 RMK AO2 T00251024
Loading
Personal Weather Stations






























Interactive Weather Map New forecast layout! Learn more

10-Day Weather Forecast

Advertisements
Track Severe Weather on mobile